sensor_id;sensor_type;location;lat;lon;timestamp;P1;durP1;ratioP1;P2;durP2;ratioP2
74849;SDS011;63397;47.480;19.238;2023-04-24T00:01:49;9.38;;;5.82;;
74849;SDS011;63397;47.480;19.238;2023-04-24T00:04:52;10.02;;;5.40;;
74849;SDS011;63397;47.480;19.238;2023-04-24T00:07:54;9.48;;;5.53;;
74849;SDS011;63397;47.480;19.238;2023-04-24T00:10:57;8.30;;;5.00;;
74849;SDS011;63397;47.480;19.238;2023-04-24T00:13:59;10.77;;;5.88;;
74849;SDS011;63397;47.480;19.238;2023-04-24T00:17:01;10.10;;;5.32;;
74849;SDS011;63397;47.480;19.238;2023-04-24T00:20:04;10.35;;;5.15;;
74849;SDS011;63397;47.480;19.238;2023-04-24T00:23:09;11.25;;;5.72;;
74849;SDS011;63397;47.480;19.238;2023-04-24T00:26:11;12.03;;;5.43;;
74849;SDS011;63397;47.480;19.238;2023-04-24T00:29:13;9.35;;;5.20;;
74849;SDS011;63397;47.480;19.238;2023-04-24T00:32:16;11.75;;;4.97;;
74849;SDS011;63397;47.480;19.238;2023-04-24T00:35:20;9.68;;;5.22;;
74849;SDS011;63397;47.480;19.238;2023-04-24T00:38:22;10.98;;;5.80;;
74849;SDS011;63397;47.480;19.238;2023-04-24T00:41:24;9.73;;;5.37;;
74849;SDS011;63397;47.480;19.238;2023-04-24T00:44:27;9.40;;;5.78;;
74849;SDS011;63397;47.480;19.238;2023-04-24T00:47:29;10.35;;;5.90;;
74849;SDS011;63397;47.480;19.238;2023-04-24T00:50:32;8.65;;;5.20;;
74849;SDS011;63397;47.480;19.238;2023-04-24T00:53:34;10.10;;;5.90;;
74849;SDS011;63397;47.480;19.238;2023-04-24T00:56:36;8.77;;;5.13;;
74849;SDS011;63397;47.480;19.238;2023-04-24T00:59:39;9.75;;;5.43;;
74849;SDS011;63397;47.480;19.238;2023-04-24T01:02:43;10.68;;;5.68;;
74849;SDS011;63397;47.480;19.238;2023-04-24T01:05:47;9.43;;;5.40;;
74849;SDS011;63397;47.480;19.238;2023-04-24T01:08:49;10.20;;;5.78;;
74849;SDS011;63397;47.480;19.238;2023-04-24T01:11:51;10.67;;;5.90;;
74849;SDS011;63397;47.480;19.238;2023-04-24T01:14:54;10.40;;;5.95;;
74849;SDS011;63397;47.480;19.238;2023-04-24T01:17:58;11.05;;;6.10;;
74849;SDS011;63397;47.480;19.238;2023-04-24T01:21:02;9.38;;;5.28;;
74849;SDS011;63397;47.480;19.238;2023-04-24T01:24:06;11.15;;;5.70;;
74849;SDS011;63397;47.480;19.238;2023-04-24T01:27:09;12.33;;;6.00;;
74849;SDS011;63397;47.480;19.238;2023-04-24T01:30:11;10.70;;;5.72;;
74849;SDS011;63397;47.480;19.238;2023-04-24T01:33:14;9.82;;;5.60;;
74849;SDS011;63397;47.480;19.238;2023-04-24T01:36:16;10.90;;;5.95;;
74849;SDS011;63397;47.480;19.238;2023-04-24T01:39:18;14.25;;;6.25;;
74849;SDS011;63397;47.480;19.238;2023-04-24T01:42:22;13.03;;;6.40;;
74849;SDS011;63397;47.480;19.238;2023-04-24T01:45:24;13.10;;;6.22;;
74849;SDS011;63397;47.480;19.238;2023-04-24T01:48:27;11.57;;;6.22;;
74849;SDS011;63397;47.480;19.238;2023-04-24T01:51:29;12.35;;;6.13;;
74849;SDS011;63397;47.480;19.238;2023-04-24T01:54:32;11.05;;;6.20;;
74849;SDS011;63397;47.480;19.238;2023-04-24T01:57:34;11.10;;;6.03;;
74849;SDS011;63397;47.480;19.238;2023-04-24T02:00:37;13.13;;;6.15;;
74849;SDS011;63397;47.480;19.238;2023-04-24T02:03:39;12.52;;;6.25;;
74849;SDS011;63397;47.480;19.238;2023-04-24T02:06:42;13.18;;;6.00;;
74849;SDS011;63397;47.480;19.238;2023-04-24T02:09:44;10.90;;;5.90;;
74849;SDS011;63397;47.480;19.238;2023-04-24T02:12:46;12.80;;;6.13;;
74849;SDS011;63397;47.480;19.238;2023-04-24T02:15:49;11.63;;;6.03;;
74849;SDS011;63397;47.480;19.238;2023-04-24T02:18:52;9.80;;;6.25;;
74849;SDS011;63397;47.480;19.238;2023-04-24T02:21:54;13.05;;;6.63;;
74849;SDS011;63397;47.480;19.238;2023-04-24T02:24:56;11.38;;;6.63;;
74849;SDS011;63397;47.480;19.238;2023-04-24T02:27:58;14.00;;;7.70;;
74849;SDS011;63397;47.480;19.238;2023-04-24T02:31:01;12.05;;;7.35;;
74849;SDS011;63397;47.480;19.238;2023-04-24T02:34:03;15.20;;;8.18;;
74849;SDS011;63397;47.480;19.238;2023-04-24T02:37:06;14.60;;;7.78;;
74849;SDS011;63397;47.480;19.238;2023-04-24T02:40:08;15.63;;;8.40;;
74849;SDS011;63397;47.480;19.238;2023-04-24T02:43:10;14.37;;;8.97;;
74849;SDS011;63397;47.480;19.238;2023-04-24T02:46:13;16.33;;;9.18;;
74849;SDS011;63397;47.480;19.238;2023-04-24T02:49:15;15.15;;;8.35;;
74849;SDS011;63397;47.480;19.238;2023-04-24T02:52:17;14.00;;;7.63;;
74849;SDS011;63397;47.480;19.238;2023-04-24T02:55:19;16.75;;;8.00;;
74849;SDS011;63397;47.480;19.238;2023-04-24T02:58:22;14.93;;;8.20;;
74849;SDS011;63397;47.480;19.238;2023-04-24T03:01:24;14.60;;;8.20;;
74849;SDS011;63397;47.480;19.238;2023-04-24T03:04:27;14.15;;;8.10;;
74849;SDS011;63397;47.480;19.238;2023-04-24T03:07:29;13.57;;;7.75;;
74849;SDS011;63397;47.480;19.238;2023-04-24T03:10:33;14.70;;;7.85;;
74849;SDS011;63397;47.480;19.238;2023-04-24T03:13:36;15.87;;;7.73;;
74849;SDS011;63397;47.480;19.238;2023-04-24T03:16:38;16.58;;;8.75;;
74849;SDS011;63397;47.480;19.238;2023-04-24T03:19:41;15.70;;;8.20;;
74849;SDS011;63397;47.480;19.238;2023-04-24T03:22:45;16.73;;;8.90;;
74849;SDS011;63397;47.480;19.238;2023-04-24T03:25:47;14.65;;;7.70;;
74849;SDS011;63397;47.480;19.238;2023-04-24T03:28:51;16.87;;;8.93;;
74849;SDS011;63397;47.480;19.238;2023-04-24T03:31:53;16.40;;;9.10;;
74849;SDS011;63397;47.480;19.238;2023-04-24T03:34:56;15.02;;;9.02;;
74849;SDS011;63397;47.480;19.238;2023-04-24T03:37:58;16.70;;;9.20;;
74849;SDS011;63397;47.480;19.238;2023-04-24T03:41:24;16.45;;;8.80;;
74849;SDS011;63397;47.480;19.238;2023-04-24T03:44:30;16.50;;;9.03;;
74849;SDS011;63397;47.480;19.238;2023-04-24T03:47:32;16.92;;;8.57;;
74849;SDS011;63397;47.480;19.238;2023-04-24T03:50:36;16.98;;;8.93;;
74849;SDS011;63397;47.480;19.238;2023-04-24T03:53:39;17.38;;;9.32;;
74849;SDS011;63397;47.480;19.238;2023-04-24T03:56:43;17.73;;;9.13;;
74849;SDS011;63397;47.480;19.238;2023-04-24T03:59:45;16.13;;;9.23;;
74849;SDS011;63397;47.480;19.238;2023-04-24T04:02:52;16.75;;;9.23;;
74849;SDS011;63397;47.480;19.238;2023-04-24T04:05:55;19.30;;;9.70;;
74849;SDS011;63397;47.480;19.238;2023-04-24T04:08:57;17.15;;;8.88;;
74849;SDS011;63397;47.480;19.238;2023-04-24T04:12:00;15.27;;;8.32;;
74849;SDS011;63397;47.480;19.238;2023-04-24T04:15:03;15.67;;;8.20;;
74849;SDS011;63397;47.480;19.238;2023-04-24T04:18:08;14.68;;;8.98;;
74849;SDS011;63397;47.480;19.238;2023-04-24T04:21:10;15.65;;;8.50;;
74849;SDS011;63397;47.480;19.238;2023-04-24T04:24:13;14.85;;;8.90;;
74849;SDS011;63397;47.480;19.238;2023-04-24T04:27:19;15.18;;;8.98;;
74849;SDS011;63397;47.480;19.238;2023-04-24T04:30:31;16.73;;;9.53;;
74849;SDS011;63397;47.480;19.238;2023-04-24T04:33:37;18.98;;;9.23;;
74849;SDS011;63397;47.480;19.238;2023-04-24T04:36:42;15.07;;;8.88;;
74849;SDS011;63397;47.480;19.238;2023-04-24T04:40:02;13.70;;;8.32;;
74849;SDS011;63397;47.480;19.238;2023-04-24T04:43:25;13.52;;;7.90;;
74849;SDS011;63397;47.480;19.238;2023-04-24T04:46:29;16.07;;;7.63;;
74849;SDS011;63397;47.480;19.238;2023-04-24T04:49:42;12.77;;;7.05;;
74849;SDS011;63397;47.480;19.238;2023-04-24T04:52:55;14.48;;;7.55;;
74849;SDS011;63397;47.480;19.238;2023-04-24T04:56:04;13.30;;;7.10;;
74849;SDS011;63397;47.480;19.238;2023-04-24T04:59:18;11.93;;;6.60;;
74849;SDS011;63397;47.480;19.238;2023-04-24T05:02:23;14.87;;;7.50;;
74849;SDS011;63397;47.480;19.238;2023-04-24T05:05:26;13.38;;;7.10;;
74849;SDS011;63397;47.480;19.238;2023-04-24T05:08:28;13.65;;;7.53;;
74849;SDS011;63397;47.480;19.238;2023-04-24T05:11:31;12.25;;;7.22;;
74849;SDS011;63397;47.480;19.238;2023-04-24T05:14:36;13.75;;;6.93;;
74849;SDS011;63397;47.480;19.238;2023-04-24T05:17:38;14.07;;;7.73;;
74849;SDS011;63397;47.480;19.238;2023-04-24T05:20:42;13.02;;;7.78;;
74849;SDS011;63397;47.480;19.238;2023-04-24T05:23:45;13.18;;;7.43;;
74849;SDS011;63397;47.480;19.238;2023-04-24T05:26:52;15.63;;;7.40;;
74849;SDS011;63397;47.480;19.238;2023-04-24T05:30:00;13.05;;;7.38;;
74849;SDS011;63397;47.480;19.238;2023-04-24T05:33:02;14.23;;;7.70;;
74849;SDS011;63397;47.480;19.238;2023-04-24T05:36:08;16.23;;;7.70;;
74849;SDS011;63397;47.480;19.238;2023-04-24T05:39:10;11.93;;;7.45;;
74849;SDS011;63397;47.480;19.238;2023-04-24T05:42:12;14.02;;;7.75;;
74849;SDS011;63397;47.480;19.238;2023-04-24T05:45:15;14.68;;;8.13;;
74849;SDS011;63397;47.480;19.238;2023-04-24T05:48:19;15.00;;;7.30;;
74849;SDS011;63397;47.480;19.238;2023-04-24T05:51:21;12.35;;;7.20;;
74849;SDS011;63397;47.480;19.238;2023-04-24T05:54:24;13.38;;;7.32;;
74849;SDS011;63397;47.480;19.238;2023-04-24T05:57:33;14.38;;;7.68;;
74849;SDS011;63397;47.480;19.238;2023-04-24T06:00:39;12.85;;;7.20;;
74849;SDS011;63397;47.480;19.238;2023-04-24T06:03:50;13.00;;;7.97;;
74849;SDS011;63397;47.480;19.238;2023-04-24T06:06:53;12.07;;;7.20;;
74849;SDS011;63397;47.480;19.238;2023-04-24T06:10:00;12.45;;;6.82;;
74849;SDS011;63397;47.480;19.238;2023-04-24T06:13:31;13.60;;;6.93;;
74849;SDS011;63397;47.480;19.238;2023-04-24T06:16:52;12.65;;;7.43;;
74849;SDS011;63397;47.480;19.238;2023-04-24T06:20:08;12.13;;;7.57;;
74849;SDS011;63397;47.480;19.238;2023-04-24T06:23:10;12.93;;;7.38;;
74849;SDS011;63397;47.480;19.238;2023-04-24T06:26:15;12.82;;;7.55;;
74849;SDS011;63397;47.480;19.238;2023-04-24T06:29:21;13.48;;;7.55;;
74849;SDS011;63397;47.480;19.238;2023-04-24T06:32:25;13.60;;;7.05;;
74849;SDS011;63397;47.480;19.238;2023-04-24T06:35:28;11.87;;;6.47;;
74849;SDS011;63397;47.480;19.238;2023-04-24T06:38:30;14.68;;;7.65;;
74849;SDS011;63397;47.480;19.238;2023-04-24T06:41:34;14.60;;;7.38;;
74849;SDS011;63397;47.480;19.238;2023-04-24T06:44:38;13.50;;;7.72;;
74849;SDS011;63397;47.480;19.238;2023-04-24T06:47:43;13.90;;;7.38;;
74849;SDS011;63397;47.480;19.238;2023-04-24T06:50:45;15.40;;;8.00;;
74849;SDS011;63397;47.480;19.238;2023-04-24T06:53:49;12.75;;;7.20;;
74849;SDS011;63397;47.480;19.238;2023-04-24T06:56:52;13.90;;;8.15;;
74849;SDS011;63397;47.480;19.238;2023-04-24T06:59:54;16.10;;;8.98;;
74849;SDS011;63397;47.480;19.238;2023-04-24T07:02:57;18.33;;;9.27;;
74849;SDS011;63397;47.480;19.238;2023-04-24T07:05:59;16.00;;;8.90;;
74849;SDS011;63397;47.480;19.238;2023-04-24T07:09:02;15.73;;;8.68;;
74849;SDS011;63397;47.480;19.238;2023-04-24T07:12:05;20.08;;;9.85;;
74849;SDS011;63397;47.480;19.238;2023-04-24T07:15:08;16.88;;;9.50;;
74849;SDS011;63397;47.480;19.238;2023-04-24T07:18:10;17.35;;;9.88;;
74849;SDS011;63397;47.480;19.238;2023-04-24T07:21:13;19.50;;;10.73;;
74849;SDS011;63397;47.480;19.238;2023-04-24T07:24:15;17.77;;;9.90;;
74849;SDS011;63397;47.480;19.238;2023-04-24T07:27:17;15.77;;;9.63;;
74849;SDS011;63397;47.480;19.238;2023-04-24T07:30:19;15.98;;;9.45;;
74849;SDS011;63397;47.480;19.238;2023-04-24T07:33:22;20.25;;;9.55;;
74849;SDS011;63397;47.480;19.238;2023-04-24T07:36:24;18.23;;;9.60;;
74849;SDS011;63397;47.480;19.238;2023-04-24T07:39:28;16.35;;;9.57;;
74849;SDS011;63397;47.480;19.238;2023-04-24T07:42:31;17.95;;;9.48;;
74849;SDS011;63397;47.480;19.238;2023-04-24T07:45:34;18.50;;;10.30;;
74849;SDS011;63397;47.480;19.238;2023-04-24T07:48:39;16.80;;;9.93;;
74849;SDS011;63397;47.480;19.238;2023-04-24T07:51:42;17.57;;;9.77;;
74849;SDS011;63397;47.480;19.238;2023-04-24T07:54:44;18.50;;;9.70;;
74849;SDS011;63397;47.480;19.238;2023-04-24T07:57:46;16.73;;;9.93;;
74849;SDS011;63397;47.480;19.238;2023-04-24T08:00:49;20.75;;;9.68;;
74849;SDS011;63397;47.480;19.238;2023-04-24T08:03:51;16.90;;;10.40;;
74849;SDS011;63397;47.480;19.238;2023-04-24T08:06:54;15.03;;;9.73;;
74849;SDS011;63397;47.480;19.238;2023-04-24T08:09:57;18.15;;;9.25;;
74849;SDS011;63397;47.480;19.238;2023-04-24T08:12:59;17.55;;;9.63;;
74849;SDS011;63397;47.480;19.238;2023-04-24T08:16:01;15.57;;;8.95;;
74849;SDS011;63397;47.480;19.238;2023-04-24T08:19:04;16.50;;;10.43;;
74849;SDS011;63397;47.480;19.238;2023-04-24T08:22:06;17.30;;;8.87;;
74849;SDS011;63397;47.480;19.238;2023-04-24T08:25:09;15.23;;;8.80;;
74849;SDS011;63397;47.480;19.238;2023-04-24T08:28:11;12.38;;;7.63;;
74849;SDS011;63397;47.480;19.238;2023-04-24T08:31:16;13.98;;;8.35;;
74849;SDS011;63397;47.480;19.238;2023-04-24T08:34:18;16.50;;;9.13;;
74849;SDS011;63397;47.480;19.238;2023-04-24T08:37:20;14.20;;;7.97;;
74849;SDS011;63397;47.480;19.238;2023-04-24T08:40:27;16.10;;;8.38;;
74849;SDS011;63397;47.480;19.238;2023-04-24T08:43:30;13.30;;;8.43;;
74849;SDS011;63397;47.480;19.238;2023-04-24T08:46:34;13.85;;;7.53;;
74849;SDS011;63397;47.480;19.238;2023-04-24T08:49:38;13.25;;;8.20;;
74849;SDS011;63397;47.480;19.238;2023-04-24T08:52:40;13.53;;;8.00;;
74849;SDS011;63397;47.480;19.238;2023-04-24T08:55:43;13.27;;;7.78;;
74849;SDS011;63397;47.480;19.238;2023-04-24T08:58:51;13.23;;;7.00;;
74849;SDS011;63397;47.480;19.238;2023-04-24T09:01:56;12.60;;;6.68;;
74849;SDS011;63397;47.480;19.238;2023-04-24T09:10:56;13.87;;;6.93;;
74849;SDS011;63397;47.480;19.238;2023-04-24T09:14:01;10.25;;;6.53;;
74849;SDS011;63397;47.480;19.238;2023-04-24T09:17:03;11.93;;;6.25;;
74849;SDS011;63397;47.480;19.238;2023-04-24T09:20:06;9.77;;;6.60;;
74849;SDS011;63397;47.480;19.238;2023-04-24T09:23:09;10.95;;;6.30;;
74849;SDS011;63397;47.480;19.238;2023-04-24T09:26:18;9.57;;;5.83;;
74849;SDS011;63397;47.480;19.238;2023-04-24T09:29:23;10.73;;;6.20;;
74849;SDS011;63397;47.480;19.238;2023-04-24T09:32:25;12.05;;;6.78;;
74849;SDS011;63397;47.480;19.238;2023-04-24T09:35:28;9.07;;;5.85;;
74849;SDS011;63397;47.480;19.238;2023-04-24T09:38:35;9.40;;;6.32;;
74849;SDS011;63397;47.480;19.238;2023-04-24T09:41:49;9.67;;;5.50;;
74849;SDS011;63397;47.480;19.238;2023-04-24T09:44:52;10.80;;;6.03;;
74849;SDS011;63397;47.480;19.238;2023-04-24T09:48:05;12.27;;;7.07;;
74849;SDS011;63397;47.480;19.238;2023-04-24T09:51:12;10.00;;;6.28;;
74849;SDS011;63397;47.480;19.238;2023-04-24T09:54:18;12.27;;;6.50;;
74849;SDS011;63397;47.480;19.238;2023-04-24T09:57:22;11.90;;;6.67;;
74849;SDS011;63397;47.480;19.238;2023-04-24T10:00:32;13.68;;;6.70;;
74849;SDS011;63397;47.480;19.238;2023-04-24T10:03:35;10.48;;;5.80;;
74849;SDS011;63397;47.480;19.238;2023-04-24T10:06:38;9.77;;;6.15;;
74849;SDS011;63397;47.480;19.238;2023-04-24T10:09:40;8.48;;;4.88;;
74849;SDS011;63397;47.480;19.238;2023-04-24T10:12:44;9.77;;;5.20;;
74849;SDS011;63397;47.480;19.238;2023-04-24T10:15:46;8.05;;;4.28;;
74849;SDS011;63397;47.480;19.238;2023-04-24T10:18:50;7.70;;;4.13;;
74849;SDS011;63397;47.480;19.238;2023-04-24T10:21:53;10.32;;;4.15;;
74849;SDS011;63397;47.480;19.238;2023-04-24T10:24:56;11.75;;;5.10;;
74849;SDS011;63397;47.480;19.238;2023-04-24T10:27:59;10.73;;;5.10;;
74849;SDS011;63397;47.480;19.238;2023-04-24T10:31:02;11.95;;;4.97;;
74849;SDS011;63397;47.480;19.238;2023-04-24T10:34:05;8.10;;;4.72;;
74849;SDS011;63397;47.480;19.238;2023-04-24T10:37:07;9.82;;;4.72;;
74849;SDS011;63397;47.480;19.238;2023-04-24T10:40:10;7.60;;;4.50;;
74849;SDS011;63397;47.480;19.238;2023-04-24T10:43:13;9.10;;;4.77;;
74849;SDS011;63397;47.480;19.238;2023-04-24T10:46:21;7.45;;;4.25;;
74849;SDS011;63397;47.480;19.238;2023-04-24T10:49:33;7.97;;;4.75;;
74849;SDS011;63397;47.480;19.238;2023-04-24T10:52:48;9.80;;;4.78;;
74849;SDS011;63397;47.480;19.238;2023-04-24T10:56:08;9.07;;;4.75;;
74849;SDS011;63397;47.480;19.238;2023-04-24T10:59:21;7.93;;;4.17;;
74849;SDS011;63397;47.480;19.238;2023-04-24T11:02:35;8.10;;;4.47;;
74849;SDS011;63397;47.480;19.238;2023-04-24T11:05:51;7.95;;;4.60;;
74849;SDS011;63397;47.480;19.238;2023-04-24T11:08:59;12.57;;;4.88;;
74849;SDS011;63397;47.480;19.238;2023-04-24T11:12:04;8.30;;;4.88;;
74849;SDS011;63397;47.480;19.238;2023-04-24T11:15:11;11.43;;;5.67;;
74849;SDS011;63397;47.480;19.238;2023-04-24T11:18:14;8.73;;;4.80;;
74849;SDS011;63397;47.480;19.238;2023-04-24T11:21:17;10.00;;;6.00;;
74849;SDS011;63397;47.480;19.238;2023-04-24T11:24:23;10.85;;;6.90;;
74849;SDS011;63397;47.480;19.238;2023-04-24T11:27:26;10.27;;;5.63;;
74849;SDS011;63397;47.480;19.238;2023-04-24T11:30:31;10.03;;;6.20;;
74849;SDS011;63397;47.480;19.238;2023-04-24T11:33:35;8.80;;;5.20;;
74849;SDS011;63397;47.480;19.238;2023-04-24T11:36:38;9.95;;;4.95;;
74849;SDS011;63397;47.480;19.238;2023-04-24T11:39:40;8.90;;;4.45;;
74849;SDS011;63397;47.480;19.238;2023-04-24T11:42:44;6.93;;;3.25;;
74849;SDS011;63397;47.480;19.238;2023-04-24T11:45:49;8.73;;;4.53;;
74849;SDS011;63397;47.480;19.238;2023-04-24T11:48:52;11.20;;;5.60;;
74849;SDS011;63397;47.480;19.238;2023-04-24T11:51:57;9.63;;;5.05;;
74849;SDS011;63397;47.480;19.238;2023-04-24T11:55:02;9.73;;;5.80;;
74849;SDS011;63397;47.480;19.238;2023-04-24T11:58:05;11.13;;;5.85;;
74849;SDS011;63397;47.480;19.238;2023-04-24T12:01:08;14.37;;;5.73;;
74849;SDS011;63397;47.480;19.238;2023-04-24T12:04:10;12.45;;;6.30;;
74849;SDS011;63397;47.480;19.238;2023-04-24T12:07:13;11.13;;;6.28;;
74849;SDS011;63397;47.480;19.238;2023-04-24T12:10:25;11.55;;;6.80;;
74849;SDS011;63397;47.480;19.238;2023-04-24T12:13:28;13.43;;;6.65;;
74849;SDS011;63397;47.480;19.238;2023-04-24T12:16:30;11.97;;;6.20;;
74849;SDS011;63397;47.480;19.238;2023-04-24T12:19:35;11.60;;;6.85;;
74849;SDS011;63397;47.480;19.238;2023-04-24T12:25:53;7.93;;;4.18;;
74849;SDS011;63397;47.480;19.238;2023-04-24T12:28:55;9.27;;;4.32;;
74849;SDS011;63397;47.480;19.238;2023-04-24T12:31:58;8.80;;;5.10;;
74849;SDS011;63397;47.480;19.238;2023-04-24T12:35:00;11.20;;;5.35;;
74849;SDS011;63397;47.480;19.238;2023-04-24T12:38:10;12.68;;;6.57;;
74849;SDS011;63397;47.480;19.238;2023-04-24T12:41:13;13.13;;;7.13;;
74849;SDS011;63397;47.480;19.238;2023-04-24T12:44:16;12.82;;;7.35;;
74849;SDS011;63397;47.480;19.238;2023-04-24T12:47:18;11.80;;;6.60;;
74849;SDS011;63397;47.480;19.238;2023-04-24T12:50:20;11.15;;;6.78;;
74849;SDS011;63397;47.480;19.238;2023-04-24T12:53:23;10.65;;;4.82;;
74849;SDS011;63397;47.480;19.238;2023-04-24T12:56:28;8.35;;;4.43;;
74849;SDS011;63397;47.480;19.238;2023-04-24T12:59:30;7.18;;;4.07;;
74849;SDS011;63397;47.480;19.238;2023-04-24T13:02:33;7.57;;;4.30;;
74849;SDS011;63397;47.480;19.238;2023-04-24T13:05:36;6.03;;;3.20;;
74849;SDS011;63397;47.480;19.238;2023-04-24T13:08:38;9.80;;;3.88;;
74849;SDS011;63397;47.480;19.238;2023-04-24T13:11:40;10.82;;;4.07;;
74849;SDS011;63397;47.480;19.238;2023-04-24T13:14:43;6.18;;;3.03;;
74849;SDS011;63397;47.480;19.238;2023-04-24T13:17:45;6.60;;;3.17;;
74849;SDS011;63397;47.480;19.238;2023-04-24T13:20:47;7.03;;;3.53;;
74849;SDS011;63397;47.480;19.238;2023-04-24T13:23:50;7.25;;;3.85;;
74849;SDS011;63397;47.480;19.238;2023-04-24T13:26:53;8.50;;;3.22;;
74849;SDS011;63397;47.480;19.238;2023-04-24T13:29:56;10.02;;;3.05;;
74849;SDS011;63397;47.480;19.238;2023-04-24T13:32:58;6.40;;;2.97;;
74849;SDS011;63397;47.480;19.238;2023-04-24T13:36:00;6.72;;;3.20;;
74849;SDS011;63397;47.480;19.238;2023-04-24T13:39:03;4.80;;;2.60;;
74849;SDS011;63397;47.480;19.238;2023-04-24T13:42:07;7.00;;;3.95;;
74849;SDS011;63397;47.480;19.238;2023-04-24T13:45:10;7.40;;;3.45;;
74849;SDS011;63397;47.480;19.238;2023-04-24T13:48:26;7.67;;;3.47;;
74849;SDS011;63397;47.480;19.238;2023-04-24T13:51:28;7.47;;;3.35;;
74849;SDS011;63397;47.480;19.238;2023-04-24T13:54:31;11.02;;;3.45;;
74849;SDS011;63397;47.480;19.238;2023-04-24T13:57:33;7.53;;;3.10;;
74849;SDS011;63397;47.480;19.238;2023-04-24T14:00:35;5.68;;;2.72;;
74849;SDS011;63397;47.480;19.238;2023-04-24T14:03:38;5.87;;;2.83;;
74849;SDS011;63397;47.480;19.238;2023-04-24T14:06:41;5.88;;;3.13;;
74849;SDS011;63397;47.480;19.238;2023-04-24T14:09:43;5.60;;;3.13;;
74849;SDS011;63397;47.480;19.238;2023-04-24T14:12:45;6.70;;;3.20;;
74849;SDS011;63397;47.480;19.238;2023-04-24T14:15:47;4.95;;;3.00;;
74849;SDS011;63397;47.480;19.238;2023-04-24T14:18:50;6.27;;;3.03;;
74849;SDS011;63397;47.480;19.238;2023-04-24T14:21:52;8.25;;;3.42;;
74849;SDS011;63397;47.480;19.238;2023-04-24T14:24:55;5.97;;;3.20;;
74849;SDS011;63397;47.480;19.238;2023-04-24T14:27:57;7.10;;;3.30;;
74849;SDS011;63397;47.480;19.238;2023-04-24T14:31:00;7.32;;;3.10;;
74849;SDS011;63397;47.480;19.238;2023-04-24T14:34:02;5.47;;;2.97;;
74849;SDS011;63397;47.480;19.238;2023-04-24T14:37:05;6.85;;;3.00;;
74849;SDS011;63397;47.480;19.238;2023-04-24T14:40:07;5.40;;;3.03;;
74849;SDS011;63397;47.480;19.238;2023-04-24T14:43:30;6.28;;;3.22;;
74849;SDS011;63397;47.480;19.238;2023-04-24T14:46:32;6.38;;;3.95;;
74849;SDS011;63397;47.480;19.238;2023-04-24T14:49:34;7.23;;;3.60;;
74849;SDS011;63397;47.480;19.238;2023-04-24T14:52:37;6.63;;;3.70;;
74849;SDS011;63397;47.480;19.238;2023-04-24T14:55:39;6.95;;;3.97;;
74849;SDS011;63397;47.480;19.238;2023-04-24T14:58:41;7.00;;;3.70;;
74849;SDS011;63397;47.480;19.238;2023-04-24T15:01:44;9.10;;;4.15;;
74849;SDS011;63397;47.480;19.238;2023-04-24T15:04:47;7.63;;;4.20;;
74849;SDS011;63397;47.480;19.238;2023-04-24T15:07:49;8.82;;;4.50;;
74849;SDS011;63397;47.480;19.238;2023-04-24T15:10:52;8.90;;;4.10;;
74849;SDS011;63397;47.480;19.238;2023-04-24T15:13:55;9.40;;;5.35;;
74849;SDS011;63397;47.480;19.238;2023-04-24T15:16:57;9.60;;;5.00;;
74849;SDS011;63397;47.480;19.238;2023-04-24T15:19:59;11.13;;;5.10;;
74849;SDS011;63397;47.480;19.238;2023-04-24T15:23:02;9.73;;;5.72;;
74849;SDS011;63397;47.480;19.238;2023-04-24T15:26:05;11.00;;;5.65;;
74849;SDS011;63397;47.480;19.238;2023-04-24T15:29:07;10.57;;;6.03;;
74849;SDS011;63397;47.480;19.238;2023-04-24T15:32:09;10.45;;;5.75;;
74849;SDS011;63397;47.480;19.238;2023-04-24T15:35:12;12.37;;;6.10;;
74849;SDS011;63397;47.480;19.238;2023-04-24T15:38:14;12.55;;;6.13;;
74849;SDS011;63397;47.480;19.238;2023-04-24T15:41:16;11.60;;;6.32;;
74849;SDS011;63397;47.480;19.238;2023-04-24T15:44:19;12.90;;;6.93;;
74849;SDS011;63397;47.480;19.238;2023-04-24T15:47:21;15.20;;;7.20;;
74849;SDS011;63397;47.480;19.238;2023-04-24T15:50:24;12.40;;;6.53;;
74849;SDS011;63397;47.480;19.238;2023-04-24T15:53:27;13.95;;;7.78;;
74849;SDS011;63397;47.480;19.238;2023-04-24T15:56:29;12.57;;;7.43;;
74849;SDS011;63397;47.480;19.238;2023-04-24T15:59:32;14.77;;;7.57;;
74849;SDS011;63397;47.480;19.238;2023-04-24T16:02:35;15.35;;;7.85;;
74849;SDS011;63397;47.480;19.238;2023-04-24T16:05:37;16.20;;;8.00;;
74849;SDS011;63397;47.480;19.238;2023-04-24T16:08:40;15.27;;;8.07;;
74849;SDS011;63397;47.480;19.238;2023-04-24T16:11:42;16.42;;;8.40;;
74849;SDS011;63397;47.480;19.238;2023-04-24T16:14:45;14.98;;;8.30;;
74849;SDS011;63397;47.480;19.238;2023-04-24T16:17:47;15.50;;;7.95;;
74849;SDS011;63397;47.480;19.238;2023-04-24T16:20:50;16.60;;;7.83;;
74849;SDS011;63397;47.480;19.238;2023-04-24T16:23:53;13.52;;;8.07;;
74849;SDS011;63397;47.480;19.238;2023-04-24T16:26:55;16.58;;;8.02;;
74849;SDS011;63397;47.480;19.238;2023-04-24T16:29:58;13.00;;;7.53;;
74849;SDS011;63397;47.480;19.238;2023-04-24T16:33:00;17.77;;;8.55;;
74849;SDS011;63397;47.480;19.238;2023-04-24T16:36:07;16.43;;;8.57;;
74849;SDS011;63397;47.480;19.238;2023-04-24T16:39:10;16.58;;;8.35;;
74849;SDS011;63397;47.480;19.238;2023-04-24T16:42:12;16.17;;;8.68;;
74849;SDS011;63397;47.480;19.238;2023-04-24T16:45:15;16.75;;;9.13;;
74849;SDS011;63397;47.480;19.238;2023-04-24T16:48:17;17.92;;;8.82;;
74849;SDS011;63397;47.480;19.238;2023-04-24T16:51:19;16.60;;;8.80;;
74849;SDS011;63397;47.480;19.238;2023-04-24T16:54:22;17.92;;;9.48;;
74849;SDS011;63397;47.480;19.238;2023-04-24T16:57:24;18.55;;;9.50;;
74849;SDS011;63397;47.480;19.238;2023-04-24T17:00:26;18.10;;;10.23;;
74849;SDS011;63397;47.480;19.238;2023-04-24T17:03:28;17.40;;;9.38;;
74849;SDS011;63397;47.480;19.238;2023-04-24T17:06:33;17.33;;;9.93;;
74849;SDS011;63397;47.480;19.238;2023-04-24T17:09:35;20.40;;;10.88;;
74849;SDS011;63397;47.480;19.238;2023-04-24T17:12:38;21.25;;;10.77;;
74849;SDS011;63397;47.480;19.238;2023-04-24T17:15:40;16.30;;;8.77;;
74849;SDS011;63397;47.480;19.238;2023-04-24T17:18:43;15.05;;;8.48;;
74849;SDS011;63397;47.480;19.238;2023-04-24T17:21:45;14.80;;;7.40;;
74849;SDS011;63397;47.480;19.238;2023-04-24T17:24:47;12.55;;;7.15;;
74849;SDS011;63397;47.480;19.238;2023-04-24T17:27:50;12.57;;;7.03;;
74849;SDS011;63397;47.480;19.238;2023-04-24T17:30:52;12.23;;;6.68;;
74849;SDS011;63397;47.480;19.238;2023-04-24T17:33:56;11.65;;;6.38;;
74849;SDS011;63397;47.480;19.238;2023-04-24T17:37:00;15.10;;;7.40;;
74849;SDS011;63397;47.480;19.238;2023-04-24T17:40:03;11.98;;;6.57;;
74849;SDS011;63397;47.480;19.238;2023-04-24T17:43:06;12.00;;;6.20;;
74849;SDS011;63397;47.480;19.238;2023-04-24T17:46:08;9.27;;;5.28;;
74849;SDS011;63397;47.480;19.238;2023-04-24T17:49:11;10.43;;;5.68;;
74849;SDS011;63397;47.480;19.238;2023-04-24T17:52:13;11.33;;;6.10;;
74849;SDS011;63397;47.480;19.238;2023-04-24T17:55:18;12.88;;;6.65;;
74849;SDS011;63397;47.480;19.238;2023-04-24T17:58:21;10.90;;;6.60;;
74849;SDS011;63397;47.480;19.238;2023-04-24T18:01:24;11.95;;;6.00;;
74849;SDS011;63397;47.480;19.238;2023-04-24T18:04:26;11.98;;;6.53;;
74849;SDS011;63397;47.480;19.238;2023-04-24T18:07:29;11.90;;;6.47;;